createdAt,value
2019-01-24T00:01:15.381Z,3.50
2019-01-24T00:03:44.977Z,3.33
2019-01-24T00:06:14.497Z,4.00
2019-01-24T00:08:44.113Z,3.60
2019-01-24T00:11:13.686Z,3.80
2019-01-24T00:13:44.886Z,3.60
2019-01-24T00:16:14.517Z,3.90
2019-01-24T00:18:44.153Z,3.87
2019-01-24T00:21:13.711Z,4.13
2019-01-24T00:23:43.284Z,3.67
2019-01-24T00:26:12.890Z,3.50
2019-01-24T00:28:42.457Z,4.13
2019-01-24T00:31:12.014Z,3.93
2019-01-24T00:33:41.612Z,4.20
2019-01-24T00:36:11.168Z,3.87
2019-01-24T00:38:40.742Z,4.27
2019-01-24T00:41:11.508Z,3.40
2019-01-24T00:43:41.102Z,4.10
2019-01-24T00:46:10.669Z,3.57
2019-01-24T00:48:40.270Z,3.90
2019-01-24T00:51:09.828Z,4.07
2019-01-24T00:53:39.472Z,3.77
2019-01-24T00:56:09.065Z,3.80
2019-01-24T00:58:38.585Z,3.90
2019-01-24T01:01:08.278Z,4.13
2019-01-24T01:03:37.797Z,3.67
2019-01-24T01:06:07.421Z,3.97
2019-01-24T01:08:37.041Z,4.47
2019-01-24T01:11:08.233Z,4.07
2019-01-24T01:13:37.834Z,4.23
2019-01-24T01:16:07.377Z,3.37
2019-01-24T01:18:37.001Z,4.00
2019-01-24T01:21:06.554Z,3.57
2019-01-24T01:23:38.993Z,3.50
2019-01-24T01:26:08.607Z,4.33
2019-01-24T01:28:38.185Z,3.73
2019-01-24T01:31:07.758Z,3.63
2019-01-24T01:33:37.333Z,4.17
2019-01-24T01:36:06.887Z,4.03
2019-01-24T01:38:36.461Z,3.77
2019-01-24T01:41:06.005Z,3.80
2019-01-24T01:43:35.617Z,3.60
2019-01-24T01:46:06.857Z,3.73
2019-01-24T01:48:36.449Z,3.73
2019-01-24T01:51:06.029Z,3.50
2019-01-24T01:53:35.569Z,3.63
2019-01-24T01:56:05.197Z,4.07
2019-01-24T01:58:34.783Z,3.50
2019-01-24T02:01:04.785Z,3.70
2019-01-24T02:03:34.420Z,3.77
2019-01-24T02:06:04.020Z,3.90
2019-01-24T02:08:33.600Z,4.00
2019-01-24T02:11:03.193Z,3.80
2019-01-24T02:13:32.798Z,3.67
2019-01-24T02:16:02.380Z,3.83
2019-01-24T02:18:31.957Z,3.93
2019-01-24T02:21:01.538Z,3.97
2019-01-24T02:23:31.086Z,3.83
2019-01-24T02:26:02.292Z,3.57
2019-01-24T02:28:31.930Z,4.40
2019-01-24T02:31:01.509Z,4.23
2019-01-24T02:33:31.087Z,3.63
2019-01-24T02:36:00.737Z,3.33
2019-01-24T02:38:30.326Z,4.50
2019-01-24T02:40:59.961Z,4.00
2019-01-24T02:43:29.529Z,3.37
2019-01-24T02:46:00.731Z,3.93
2019-01-24T02:48:30.430Z,3.77
2019-01-24T02:51:00.019Z,3.73
2019-01-24T02:53:29.585Z,3.67
2019-01-24T02:55:59.150Z,4.27
2019-01-24T02:58:30.341Z,3.27
2019-01-24T03:00:59.921Z,3.80
2019-01-24T03:03:29.487Z,3.60
2019-01-24T03:05:59.046Z,3.70
2019-01-24T03:08:28.619Z,3.40
2019-01-24T03:10:58.242Z,3.50
2019-01-24T03:13:27.829Z,3.50
2019-01-24T03:15:57.601Z,3.40
2019-01-24T03:18:27.188Z,3.57
2019-01-24T03:20:56.784Z,3.23
2019-01-24T03:23:26.384Z,3.80
2019-01-24T03:25:55.960Z,3.30
2019-01-24T03:28:25.524Z,3.77
2019-01-24T03:30:57.869Z,3.77
2019-01-24T03:33:27.456Z,3.83
2019-01-24T03:35:57.104Z,3.67
2019-01-24T03:38:26.674Z,3.50
2019-01-24T03:40:56.232Z,3.77
2019-01-24T03:43:25.808Z,3.90
2019-01-24T03:45:55.597Z,3.40
2019-01-24T03:48:25.761Z,3.23
2019-01-24T03:50:55.350Z,3.23
2019-01-24T03:53:24.910Z,3.70
2019-01-24T03:55:54.494Z,3.57
2019-01-24T03:58:24.042Z,3.40
2019-01-24T04:00:54.633Z,3.83
2019-01-24T04:03:24.198Z,4.00
2019-01-24T04:05:53.757Z,3.60
2019-01-24T04:08:23.417Z,3.67
2019-01-24T04:10:52.970Z,3.53
2019-01-24T04:13:22.545Z,3.47
2019-01-24T04:15:52.229Z,3.53
2019-01-24T04:18:21.823Z,3.17
2019-01-24T04:20:51.405Z,3.33
2019-01-24T04:23:20.966Z,3.33
2019-01-24T04:25:51.138Z,3.23
2019-01-24T04:28:20.693Z,3.43
2019-01-24T04:30:50.262Z,3.53
2019-01-24T04:33:19.830Z,3.27
2019-01-24T04:35:49.468Z,4.23
2019-01-24T04:38:19.053Z,3.23
2019-01-24T04:40:48.618Z,3.70
2019-01-24T04:43:18.165Z,3.20
2019-01-24T04:45:47.745Z,3.37
2019-01-24T04:48:17.290Z,3.33
2019-01-24T04:50:46.901Z,3.77
2019-01-24T04:53:16.464Z,3.93
2019-01-24T04:55:46.040Z,3.63
2019-01-24T04:58:15.676Z,3.73
2019-01-24T05:00:45.242Z,3.33
2019-01-24T05:03:16.188Z,4.03
2019-01-24T05:05:46.380Z,3.20
2019-01-24T05:08:18.920Z,3.73
2019-01-24T05:10:48.473Z,3.90
2019-01-24T05:13:18.052Z,3.50
2019-01-24T05:15:47.625Z,3.50
2019-01-24T05:18:17.209Z,4.63
2019-01-24T05:20:46.820Z,3.77
2019-01-24T05:23:16.368Z,3.77
2019-01-24T05:25:45.971Z,3.67
2019-01-24T05:28:15.547Z,3.53
2019-01-24T05:30:45.110Z,3.67
2019-01-24T05:33:15.682Z,3.43
2019-01-24T05:35:45.249Z,4.13
2019-01-24T05:38:14.837Z,3.20
2019-01-24T05:40:44.434Z,3.97
2019-01-24T05:43:14.009Z,3.63
2019-01-24T05:45:43.583Z,3.00
2019-01-24T05:48:13.171Z,3.90
2019-01-24T05:50:42.806Z,3.97
2019-01-24T05:53:13.345Z,4.10
2019-01-24T05:55:42.947Z,3.57
2019-01-24T05:58:13.649Z,3.37
2019-01-24T06:00:44.981Z,3.20
2019-01-24T06:03:14.553Z,3.80
2019-01-24T06:05:44.133Z,3.80
2019-01-24T06:08:14.712Z,3.73
2019-01-24T06:10:44.303Z,3.70
2019-01-24T06:13:13.905Z,3.80
2019-01-24T06:15:43.485Z,3.50
2019-01-24T06:18:14.088Z,3.40
2019-01-24T06:20:43.681Z,3.70
2019-01-24T06:23:13.290Z,3.37
2019-01-24T06:25:42.920Z,3.77
2019-01-24T06:28:12.503Z,3.73
2019-01-24T06:30:42.089Z,4.17
2019-01-24T06:33:11.664Z,3.20
2019-01-24T06:35:41.237Z,4.00
2019-01-24T06:38:10.840Z,3.87
2019-01-24T06:40:40.553Z,3.60
2019-01-24T06:43:10.954Z,3.60
2019-01-24T06:45:40.523Z,3.87
2019-01-24T06:48:10.104Z,3.23
2019-01-24T06:50:39.698Z,3.60
2019-01-24T06:53:10.494Z,3.37
2019-01-24T06:55:40.048Z,3.17
2019-01-24T06:58:09.652Z,3.60
2019-01-24T07:00:39.248Z,3.23
2019-01-24T07:03:08.857Z,3.47
2019-01-24T07:05:39.948Z,3.23
2019-01-24T07:08:21.730Z,3.60
2019-01-24T07:10:51.320Z,3.40
2019-01-24T07:13:20.894Z,3.70
2019-01-24T07:15:50.492Z,3.53
2019-01-24T07:18:20.090Z,3.63
2019-01-24T07:20:49.798Z,3.60
2019-01-24T07:23:19.412Z,3.80
2019-01-24T07:25:49.169Z,3.80
2019-01-24T07:28:18.733Z,3.73
2019-01-24T07:30:48.317Z,3.50
2019-01-24T07:33:17.894Z,3.93
2019-01-24T07:35:48.606Z,4.47
2019-01-24T07:38:18.177Z,3.77
2019-01-24T07:40:48.370Z,3.70
2019-01-24T07:43:17.977Z,3.50
2019-01-24T07:45:47.537Z,3.47
2019-01-24T07:48:17.180Z,3.10
2019-01-24T07:50:46.770Z,3.60
2019-01-24T07:53:16.349Z,3.60
2019-01-24T07:55:45.957Z,3.70
2019-01-24T07:58:15.533Z,3.70
2019-01-24T08:00:45.108Z,3.33
2019-01-24T08:03:14.681Z,3.57
2019-01-24T08:05:44.276Z,3.07
2019-01-24T08:08:13.929Z,3.50
2019-01-24T08:10:43.966Z,3.73
2019-01-24T08:13:13.669Z,3.90
2019-01-24T08:15:43.246Z,3.43
2019-01-24T08:18:12.836Z,3.57
2019-01-24T08:20:44.063Z,3.00
2019-01-24T08:23:13.660Z,3.67
2019-01-24T08:25:43.232Z,3.90
2019-01-24T08:28:12.859Z,3.23
2019-01-24T08:30:42.464Z,3.57
2019-01-24T08:33:12.112Z,3.60
2019-01-24T08:35:41.746Z,4.10
2019-01-24T08:38:11.346Z,3.67
2019-01-24T08:40:40.934Z,3.73
2019-01-24T08:43:10.520Z,3.80
2019-01-24T08:45:40.111Z,3.13
2019-01-24T08:48:09.662Z,3.83
2019-01-24T08:50:39.302Z,3.27
2019-01-24T08:53:08.918Z,3.60
2019-01-24T08:55:43.988Z,3.63
2019-01-24T08:58:13.504Z,3.00
2019-01-24T09:00:43.145Z,3.50
2019-01-24T09:03:12.734Z,3.90
2019-01-24T09:05:42.302Z,3.63
2019-01-24T09:08:11.921Z,4.73
2019-01-24T09:10:41.532Z,3.30
2019-01-24T09:13:11.115Z,3.10
2019-01-24T09:15:40.749Z,3.83
2019-01-24T09:18:10.334Z,3.30
2019-01-24T09:20:39.958Z,3.57
2019-01-24T09:23:09.545Z,3.80
2019-01-24T09:25:39.612Z,3.80
2019-01-24T09:28:14.760Z,3.63
2019-01-24T09:30:40.719Z,3.83
2019-01-24T09:33:10.381Z,3.73
2019-01-24T09:35:42.624Z,3.37
2019-01-24T09:38:12.214Z,3.53
2019-01-24T09:40:41.773Z,3.57
2019-01-24T09:43:11.466Z,3.13
2019-01-24T09:45:41.049Z,3.57
2019-01-24T09:48:10.630Z,3.53
2019-01-24T09:50:40.221Z,3.40
2019-01-24T09:53:09.828Z,3.93
2019-01-24T09:55:39.391Z,3.50
2019-01-24T09:58:08.977Z,3.60
2019-01-24T10:00:38.565Z,3.17
2019-01-24T10:03:08.219Z,4.00
2019-01-24T10:05:39.213Z,3.83
2019-01-24T10:08:10.910Z,3.97
2019-01-24T10:10:40.451Z,3.80
2019-01-24T10:13:10.074Z,3.70
2019-01-24T10:15:39.665Z,3.50
2019-01-24T10:18:09.245Z,3.37
2019-01-24T10:20:38.918Z,4.33
2019-01-24T10:23:08.486Z,3.70
2019-01-24T10:25:39.763Z,4.23
2019-01-24T10:28:10.427Z,3.70
2019-01-24T10:30:43.020Z,3.60
2019-01-24T10:33:11.303Z,3.73
2019-01-24T10:35:40.945Z,3.53
2019-01-24T10:38:10.550Z,3.73
2019-01-24T10:40:40.113Z,3.53
2019-01-24T10:43:09.697Z,44.58
2019-01-24T10:45:39.315Z,20.37
2019-01-24T10:48:09.897Z,16.80
2019-01-24T10:50:39.517Z,14.00
2019-01-24T10:53:09.067Z,13.33
2019-01-24T10:55:38.732Z,12.33
2019-01-24T10:58:09.177Z,14.70
2019-01-24T11:00:42.713Z,14.13
2019-01-24T11:03:31.632Z,13.47
2019-01-24T11:06:01.255Z,13.73
2019-01-24T11:08:30.842Z,12.10
2019-01-24T11:11:00.462Z,14.17
2019-01-24T11:13:30.054Z,13.80
2019-01-24T11:16:00.540Z,14.97
2019-01-24T11:18:31.260Z,13.40
2019-01-24T11:21:00.945Z,14.00
2019-01-24T11:23:30.626Z,14.87
2019-01-24T11:26:00.288Z,12.03
2019-01-24T11:28:29.854Z,14.27
2019-01-24T11:30:59.482Z,13.17
2019-01-24T11:33:29.113Z,12.93
2019-01-24T11:35:58.728Z,12.30
2019-01-24T11:38:28.308Z,12.03
2019-01-24T11:41:00.928Z,11.80
2019-01-24T11:43:30.494Z,13.80
2019-01-24T11:46:00.096Z,11.63
2019-01-24T11:48:29.690Z,11.77
2019-01-24T11:50:59.231Z,11.67
2019-01-24T11:53:52.928Z,11.73
2019-01-24T11:56:18.319Z,10.87
2019-01-24T11:58:47.902Z,10.23
2019-01-24T12:01:19.960Z,9.90
2019-01-24T12:03:49.024Z,12.50
2019-01-24T12:06:18.622Z,10.23
2019-01-24T12:08:48.193Z,11.10
2019-01-24T12:11:17.805Z,11.77
2019-01-24T12:13:47.374Z,11.37
2019-01-24T12:16:17.041Z,11.07
2019-01-24T12:18:46.626Z,10.50
2019-01-24T12:21:16.246Z,13.33
2019-01-24T12:23:45.857Z,9.87
2019-01-24T12:26:15.453Z,11.63
2019-01-24T12:28:45.048Z,11.57
2019-01-24T12:31:14.674Z,10.13
2019-01-24T12:33:44.268Z,11.03
2019-01-24T12:36:13.849Z,9.83
2019-01-24T12:38:43.429Z,10.23
2019-01-24T12:41:13.024Z,12.50
2019-01-24T12:43:42.609Z,10.67
2019-01-24T12:46:12.185Z,10.93
2019-01-24T12:48:41.779Z,10.97
2019-01-24T12:51:11.352Z,10.43
2019-01-24T12:53:41.973Z,9.90
2019-01-24T12:56:11.558Z,9.77
2019-01-24T12:58:41.173Z,10.17
2019-01-24T13:01:10.754Z,10.70
2019-01-24T13:03:40.327Z,9.93
2019-01-24T13:06:09.890Z,9.83
2019-01-24T13:08:39.513Z,9.20
2019-01-24T13:11:09.086Z,10.03
2019-01-24T13:13:38.722Z,10.23
2019-01-24T13:16:08.378Z,8.40
2019-01-24T13:18:38.545Z,10.30
2019-01-24T13:21:08.998Z,9.57
2019-01-24T13:23:38.726Z,10.63
2019-01-24T13:26:09.167Z,9.87
2019-01-24T13:28:38.896Z,8.67
2019-01-24T13:31:09.290Z,9.00
2019-01-24T13:33:38.896Z,9.83
2019-01-24T13:36:08.544Z,9.07
2019-01-24T13:38:38.181Z,8.93
2019-01-24T13:41:07.786Z,8.23
2019-01-24T13:43:37.503Z,8.93
2019-01-24T13:46:07.082Z,10.23
2019-01-24T13:48:36.693Z,7.93
2019-01-24T13:51:06.261Z,9.47
2019-01-24T13:53:35.845Z,8.13
2019-01-24T13:56:05.457Z,8.33
2019-01-24T13:58:35.053Z,8.73
2019-01-24T14:01:04.753Z,6.53
2019-01-24T14:03:54.562Z,8.90
2019-01-24T14:06:24.130Z,9.57
2019-01-24T14:08:53.738Z,9.83
2019-01-24T14:11:23.332Z,10.10
2019-01-24T14:13:53.095Z,8.43
2019-01-24T14:16:22.690Z,8.13
2019-01-24T14:18:52.270Z,8.63
2019-01-24T14:21:21.869Z,8.90
2019-01-24T14:23:51.461Z,8.67
2019-01-24T14:26:21.051Z,7.93
2019-01-24T14:28:50.643Z,7.90
2019-01-24T14:31:20.269Z,7.67
2019-01-24T14:33:49.878Z,7.67
2019-01-24T14:36:25.245Z,8.13
2019-01-24T14:38:52.113Z,8.97
2019-01-24T14:41:21.693Z,7.60
2019-01-24T14:43:51.313Z,7.23
2019-01-24T14:46:20.864Z,7.53
2019-01-24T14:48:50.484Z,8.03
2019-01-24T14:51:20.065Z,9.77
2019-01-24T14:53:49.692Z,7.80
2019-01-24T14:56:20.291Z,8.40
2019-01-24T14:58:50.418Z,10.10
2019-01-24T15:01:24.190Z,8.37
2019-01-24T15:03:53.848Z,8.13
2019-01-24T15:06:23.431Z,8.83
2019-01-24T15:08:54.265Z,6.83
2019-01-24T15:11:23.863Z,6.67
2019-01-24T15:13:53.473Z,6.73
2019-01-24T15:16:23.061Z,7.53
2019-01-24T15:18:52.725Z,7.73
2019-01-24T15:21:22.275Z,6.70
2019-01-24T15:23:51.884Z,8.33
2019-01-24T15:26:21.505Z,7.00
2019-01-24T15:28:51.089Z,7.97
2019-01-24T15:31:20.700Z,7.07
2019-01-24T15:33:51.294Z,6.70
2019-01-24T15:36:20.939Z,6.80
2019-01-24T15:38:50.541Z,6.57
2019-01-24T15:41:20.104Z,8.17
2019-01-24T15:43:49.693Z,7.87
2019-01-24T15:46:19.304Z,8.20
2019-01-24T15:48:48.924Z,8.03
2019-01-24T15:51:18.542Z,7.03
2019-01-24T15:53:48.174Z,7.10
2019-01-24T15:56:17.944Z,7.83
2019-01-24T15:58:47.624Z,7.40
2019-01-24T16:01:17.223Z,7.97
2019-01-24T16:03:46.814Z,6.30
2019-01-24T16:06:16.434Z,7.20
2019-01-24T16:08:46.050Z,7.27
2019-01-24T16:11:15.700Z,8.07
2019-01-24T16:13:48.040Z,6.93
2019-01-24T16:16:17.714Z,6.60
2019-01-24T16:18:47.314Z,6.47
2019-01-24T16:21:16.874Z,7.17
2019-01-24T16:23:46.891Z,7.30
2019-01-24T16:26:16.446Z,7.63
2019-01-24T16:28:46.037Z,6.03
2019-01-24T16:31:15.588Z,7.40
2019-01-24T16:33:45.229Z,6.53
2019-01-24T16:36:14.814Z,6.97
2019-01-24T16:38:44.429Z,6.43
2019-01-24T16:41:13.985Z,6.60
2019-01-24T16:43:43.621Z,7.43
2019-01-24T16:46:13.226Z,7.00
2019-01-24T16:48:42.834Z,6.47
2019-01-24T16:51:12.463Z,6.70
2019-01-24T16:53:42.073Z,7.10
2019-01-24T16:56:14.315Z,6.67
2019-01-24T16:58:43.924Z,5.80
2019-01-24T17:01:26.195Z,6.93
2019-01-24T17:03:55.790Z,7.30
2019-01-24T17:06:25.357Z,6.40
2019-01-24T17:08:56.008Z,7.53
2019-01-24T17:11:25.637Z,7.33
2019-01-24T17:13:56.529Z,6.60
2019-01-24T17:16:26.218Z,6.83
2019-01-24T17:18:55.835Z,7.13
2019-01-24T17:21:25.448Z,6.97
2019-01-24T17:23:55.089Z,5.80
2019-01-24T17:26:24.652Z,7.00
2019-01-24T17:28:54.251Z,7.50
2019-01-24T17:31:23.832Z,5.80
2019-01-24T17:33:53.433Z,8.40
2019-01-24T17:36:23.023Z,7.20
2019-01-24T17:38:52.626Z,6.63
2019-01-24T17:41:22.206Z,6.77
2019-01-24T17:43:51.884Z,7.30
2019-01-24T17:46:22.794Z,6.20
2019-01-24T17:48:52.416Z,6.90
2019-01-24T17:51:22.019Z,6.50
2019-01-24T17:53:51.642Z,6.57
2019-01-24T17:56:21.204Z,6.23
2019-01-24T17:58:50.820Z,5.93
2019-01-24T18:01:20.429Z,6.53
2019-01-24T18:03:50.031Z,6.63
2019-01-24T18:06:19.655Z,6.07
2019-01-24T18:08:49.291Z,6.43
2019-01-24T18:11:18.881Z,6.23
2019-01-24T18:13:48.474Z,6.17
2019-01-24T18:16:18.085Z,6.07
2019-01-24T18:18:47.701Z,6.10
2019-01-24T18:21:17.279Z,6.73
2019-01-24T18:23:46.951Z,5.90
2019-01-24T18:26:16.551Z,5.53
2019-01-24T18:28:46.157Z,6.83
2019-01-24T18:31:15.799Z,7.30
2019-01-24T18:33:45.396Z,5.07
2019-01-24T18:36:15.011Z,6.37
2019-01-24T18:38:44.611Z,5.83
2019-01-24T18:41:14.218Z,6.43
2019-01-24T18:43:43.885Z,5.77
2019-01-24T18:46:13.446Z,5.93
2019-01-24T18:48:43.026Z,6.27
2019-01-24T18:51:12.570Z,5.50
2019-01-24T18:53:42.321Z,5.37
2019-01-24T18:56:11.931Z,6.30
2019-01-24T18:58:41.516Z,6.23
2019-01-24T19:01:11.169Z,6.77
2019-01-24T19:03:41.505Z,5.30
2019-01-24T19:06:11.114Z,6.30
2019-01-24T19:08:45.856Z,5.87
2019-01-24T19:11:11.990Z,5.23
2019-01-24T19:13:41.614Z,6.40
2019-01-24T19:16:11.217Z,7.17
2019-01-24T19:18:40.873Z,5.97
2019-01-24T19:21:10.451Z,6.70
2019-01-24T19:23:40.077Z,6.37
2019-01-24T19:26:12.462Z,6.63
2019-01-24T19:28:42.020Z,6.20
2019-01-24T19:31:11.654Z,6.23
2019-01-24T19:33:41.244Z,6.47
2019-01-24T19:36:12.084Z,6.03
2019-01-24T19:38:41.662Z,5.77
2019-01-24T19:41:11.282Z,6.30
2019-01-24T19:43:40.833Z,6.20
2019-01-24T19:46:10.440Z,6.40
2019-01-24T19:48:41.702Z,6.37
2019-01-24T19:51:11.402Z,5.87
2019-01-24T19:53:41.110Z,6.77
2019-01-24T19:56:10.748Z,6.00
2019-01-24T19:58:40.360Z,6.20
2019-01-24T20:01:09.969Z,5.30
2019-01-24T20:03:39.549Z,6.53
2019-01-24T20:06:09.173Z,6.40
2019-01-24T20:08:38.798Z,5.93
2019-01-24T20:11:08.686Z,6.47
2019-01-24T20:13:38.314Z,5.67
2019-01-24T20:16:08.006Z,5.50
2019-01-24T20:18:38.346Z,6.47
2019-01-24T20:21:07.966Z,6.23
2019-01-24T20:23:37.671Z,6.43
2019-01-24T20:26:07.414Z,5.90
2019-01-24T20:28:38.781Z,6.20
2019-01-24T20:31:08.478Z,6.20
2019-01-24T20:33:38.188Z,6.17
2019-01-24T20:36:07.911Z,5.70
2019-01-24T20:38:37.672Z,6.77
2019-01-24T20:41:07.399Z,6.30
2019-01-24T20:43:37.120Z,6.30
2019-01-24T20:46:08.486Z,6.93
2019-01-24T20:48:38.234Z,6.03
2019-01-24T20:51:08.082Z,6.50
2019-01-24T20:53:38.092Z,5.60
2019-01-24T20:56:07.834Z,6.40
2019-01-24T20:58:37.572Z,6.40
2019-01-24T21:01:07.308Z,6.20
2019-01-24T21:03:37.063Z,5.70
2019-01-24T21:06:06.822Z,7.10
2019-01-24T21:08:36.585Z,5.43
2019-01-24T21:11:06.309Z,5.47
2019-01-24T21:13:36.013Z,6.80
2019-01-24T21:16:05.707Z,6.57
2019-01-24T21:18:35.504Z,6.07
2019-01-24T21:21:05.182Z,7.00
2019-01-24T21:23:34.935Z,5.40
2019-01-24T21:26:04.681Z,6.20
2019-01-24T21:28:37.448Z,6.73
2019-01-24T21:31:07.227Z,6.57
2019-01-24T21:33:36.969Z,6.17
2019-01-24T21:36:06.715Z,5.80
2019-01-24T21:38:36.440Z,6.33
2019-01-24T21:41:06.173Z,6.80
2019-01-24T21:43:36.631Z,6.17
2019-01-24T21:46:06.355Z,5.83
2019-01-24T21:48:36.913Z,6.97
2019-01-24T21:51:11.193Z,6.10
2019-01-24T21:53:38.031Z,6.10
2019-01-24T21:56:07.762Z,5.47
2019-01-24T21:58:37.439Z,6.03
2019-01-24T22:01:07.132Z,6.27
2019-01-24T22:03:36.875Z,6.47
2019-01-24T22:06:06.529Z,6.27
2019-01-24T22:08:36.151Z,6.03
2019-01-24T22:11:05.876Z,7.33
2019-01-24T22:13:35.573Z,6.07
2019-01-24T22:16:05.288Z,6.67
2019-01-24T22:18:34.967Z,6.27
2019-01-24T22:21:07.439Z,6.17
2019-01-24T22:23:37.181Z,6.80
2019-01-24T22:26:06.893Z,6.80
2019-01-24T22:28:36.612Z,6.83
2019-01-24T22:31:06.535Z,5.87
2019-01-24T22:33:38.145Z,7.13
2019-01-24T22:36:07.891Z,6.83
2019-01-24T22:38:37.607Z,6.13
2019-01-24T22:41:07.347Z,6.13
2019-01-24T22:43:37.029Z,6.83
2019-01-24T22:46:06.695Z,6.00
2019-01-24T22:48:36.378Z,6.23
2019-01-24T22:51:06.100Z,5.50
2019-01-24T22:53:35.840Z,6.40
2019-01-24T22:56:05.555Z,6.13
2019-01-24T22:58:35.281Z,6.40
2019-01-24T23:01:38.747Z,6.63
2019-01-24T23:04:15.923Z,5.97
2019-01-24T23:06:45.650Z,7.43
2019-01-24T23:09:16.988Z,6.63
2019-01-24T23:11:46.718Z,6.83
2019-01-24T23:14:16.408Z,6.27
2019-01-24T23:16:46.138Z,5.83
2019-01-24T23:19:15.850Z,6.60
2019-01-24T23:21:47.202Z,6.60
2019-01-24T23:24:16.917Z,6.63
2019-01-24T23:26:46.628Z,5.93
2019-01-24T23:29:17.304Z,5.57
2019-01-24T23:31:47.009Z,5.87
2019-01-24T23:34:16.690Z,6.30
2019-01-24T23:36:46.350Z,5.93
2019-01-24T23:39:15.994Z,5.00
2019-01-24T23:41:45.698Z,5.80
2019-01-24T23:44:15.431Z,6.33
2019-01-24T23:46:45.103Z,5.93
2019-01-24T23:49:14.748Z,5.70
2019-01-24T23:51:44.450Z,6.17
2019-01-24T23:54:14.166Z,6.17
2019-01-24T23:56:43.895Z,6.13
2019-01-24T23:59:13.611Z,5.57
